• Join FlightAware (Why Join?)
  • Login
  • US Flag 
08:44AM EDT


 

Airport Tracker/Info


-or-


 

Live Flight TrackerFlight Track Log ✈ SKW6195 ✈ 15-Nov-2013 ✈ KDEN - CYVR

Flight Track Log - Related Links

Times and Time Zones

All times are in EST time to prevent confusion due to time zone crossing. See the SKW6195 flight status page for this flight to view local times or setup timezone preferences in your user account.

Time Position Orientation Groundspeed Altitude Reporting Facility
EST Latitude Longitude Course Direction KTS MPH feet Rate Location/Type
01:50PM 39.8500 -104.7500 323° Northwest 198 228 6,800  Level Denver TRACON
01:51PM 39.8667 -104.8167 288° West 216 249 8,700 1,800 Climbing Denver TRACON
01:52PM 40.0858 -105.0045 311° West  Level Estimated
01:52PM 39.9000 -104.9000 298° West 261 300 10,300  Level Denver TRACON
01:53PM 40.1603 -105.1155 323° Northwest  Level Estimated
01:53PM 39.9833 -104.9333 343° North 311 358 12,300  Level Denver TRACON
01:53PM 40.0133 -104.9242 13° North 312 359 13,000 1,860 Climbing Denver Center
01:54PM 40.2347 -105.2266 330° Northwest  Level Estimated
01:54PM 40.1272 -104.9139 North 330 380 15,300  Level Denver Center
01:55PM 40.3090 -105.3381 323° Northwest  Level Estimated
01:55PM 40.2242 -104.9203 357° North 351 404 16,900  Level Denver Center
01:56PM 40.3239 -104.9478 348° North 366 421 18,800 1,560 Climbing Denver Center
01:57PM 40.4333 -104.9803 347° North 378 435 20,500 1,500 Climbing Denver Center
01:58PM 40.5681 -105.0133 349° North 399 459 22,300 1,560 Climbing Denver Center
01:59PM 40.6783 -105.0486 346° North 410 472 23,800 1,440 Climbing Denver Center
02:01PM 40.7833 -105.0828 346° North 386 444 25,300 1,200 Climbing Denver Center
02:02PM 40.8606 -105.1756 318° Northwest 374 430 26,300 960 Climbing Denver Center
02:03PM 40.9397 -105.2653 319° Northwest 375 432 27,300 960 Climbing Denver Center
02:04PM 41.0375 -105.3758 320° Northwest 383 441 28,400 900 Climbing Denver Center
02:05PM 41.1183 -105.4675 320° Northwest 395 455 29,200 720 Climbing Denver Center
02:06PM 41.2133 -105.5800 318° Northwest 406 467 30,000 720 Climbing Denver Center
02:07PM 41.2800 -105.6925 308° West 404 465 30,800 720 Climbing Denver Center
02:08PM 41.3361 -105.7839 309° West 401 461 31,500 780 Climbing Denver Center
02:09PM 41.4283 -105.9344 309° West 409 471 32,500 840 Climbing Denver Center
02:10PM 41.4942 -106.0461 308° West 403 464 33,300 720 Climbing Denver Center
02:11PM 41.5717 -106.1789 308° West 405 466 34,000 300 Climbing Denver Center
02:12PM 41.6411 -106.2950 309° West 412 474 34,000  Level Denver Center
02:13PM 41.7247 -106.4372 308° West 429 494 34,000  Level Denver Center
02:14PM 41.8008 -106.5661 308° West 438 504 34,100 120 Climbing Denver Center
02:15PM 41.8742 -106.6914 308° West 445 512 34,300 360 Climbing Denver Center
02:16PM 41.9708 -106.8575 308° West 443 510 35,000 480 Climbing Denver Center
02:17PM 42.0539 -107.0019 308° West 440 506 35,500 480 Climbing Denver Center
02:18PM 42.1239 -107.1261 307° West 436 502 36,000 480 Climbing Denver Center
02:19PM 42.2067 -107.2717 308° West 439 505 36,600 480 Climbing Denver Center
02:20PM 42.2772 -107.3953 308° West 436 502 37,100 360 Climbing Denver Center
02:21PM 42.3594 -107.5400 308° West 437 503 37,400 300 Climbing Denver Center
02:22PM 42.4189 -107.6458 307° West 441 507 37,700 300 Climbing Salt Lake Center
02:23PM 42.4897 -107.7717 307° West 441 507 38,000 120 Climbing Salt Lake Center
02:24PM 42.5719 -107.9183 307° West 439 505 38,000  Level Salt Lake Center
02:25PM 42.6408 -108.0417 307° West 433 498 38,000  Level Salt Lake Center
02:26PM 42.7219 -108.1911 306° West 439 505 38,000  Level Salt Lake Center
02:27PM 42.7908 -108.3161 307° West 435 501 38,000  Level Salt Lake Center
02:28PM 42.8717 -108.4622 307° West 434 499 38,000  Level Salt Lake Center
02:29PM 42.9400 -108.5881 307° West 433 498 38,000  Level Salt Lake Center
02:30PM 43.0078 -108.7128 307° West 430 495 38,000  Level Salt Lake Center
02:32PM 43.0789 -108.8453 306° West 432 497 38,000  Level Salt Lake Center
02:33PM 43.1639 -109.0025 307° West 429 494 38,000  Level Salt Lake Center
02:34PM 43.2344 -109.1328 307° West 426 490 38,000  Level Salt Lake Center
02:35PM 43.3044 -109.2639 306° West 427 491 38,000  Level Salt Lake Center
02:36PM 43.3739 -109.3933 306° West 422 486 38,000  Level Salt Lake Center
02:37PM 43.4442 -109.5256 306° West 427 491 38,000  Level Salt Lake Center
02:38PM 43.5206 -109.6694 306° West 427 491 38,000  Level Salt Lake Center
02:39PM 43.5864 -109.7956 306° West 424 488 38,000  Level Salt Lake Center
02:40PM 43.6650 -109.9419 307° West 425 489 38,000  Level Salt Lake Center
02:41PM 43.7308 -110.0700 305° West 426 490 38,000  Level Salt Lake Center
02:42PM 43.8092 -110.2203 306° West 431 496 38,000  Level Salt Lake Center
02:43PM 43.8756 -110.3481 306° West 429 494 38,000  Level Salt Lake Center
02:44PM 43.9522 -110.4989 305° West 429 494 38,000  Level Salt Lake Center
02:45PM 44.0183 -110.6292 305° West 430 495 38,000  Level Salt Lake Center
02:46PM 44.0953 -110.7803 305° West 429 494 38,000  Level Salt Lake Center
02:47PM 44.1603 -110.9100 305° West 426 490 38,000  Level Salt Lake Center
02:48PM 44.2367 -111.0622 305° West 427 491 38,000  Level Salt Lake Center
02:49PM 44.3025 -111.1933 305° West 429 494 38,000  Level Salt Lake Center
02:50PM 44.3681 -111.3247 305° West 429 494 38,000  Level Salt Lake Center
02:51PM 44.4447 -111.4803 305° West 430 495 38,000  Level Salt Lake Center
02:52PM 44.5125 -111.6158 305° West 432 497 38,000  Level Salt Lake Center
02:53PM 44.5781 -111.7503 304° West 432 497 38,000  Level Salt Lake Center
02:54PM 44.6544 -111.9056 305° West 431 496 38,000  Level Salt Lake Center
02:55PM 44.7189 -112.0403 304° West 432 497 38,000  Level Salt Lake Center
02:56PM 44.7936 -112.1956 304° West 428 493 38,000  Level Salt Lake Center
02:57PM 44.8589 -112.3292 305° West 431 496 38,000  Level Salt Lake Center
02:58PM 44.9317 -112.4822 304° West 423 487 38,000  Level Salt Lake Center
02:59PM 44.9939 -112.6158 303° West 425 489 38,000  Level Salt Lake Center
03:00PM 45.0669 -112.7681 304° West 421 484 38,000  Level Salt Lake Center
03:01PM 45.1289 -112.8989 304° West 419 482 38,000  Level Salt Lake Center
03:02PM 45.1897 -113.0294 304° West 416 479 38,000  Level Salt Lake Center
03:04PM 45.2589 -113.1803 303° West 409 471 38,000  Level Salt Lake Center
03:05PM 45.3217 -113.3103 305° West 415 478 38,000  Level Salt Lake Center
03:06PM 45.3911 -113.4625 303° West 409 471 38,000  Level Salt Lake Center
03:07PM 45.4556 -113.6022 303° West 410 472 38,000  Level Salt Lake Center
03:08PM 45.5172 -113.7383 303° West 404 465 38,000  Level Salt Lake Center
03:09PM 45.5800 -113.8761 303° West 407 468 38,000  Level Salt Lake Center
03:10PM 45.6389 -114.0011 304° West 408 470 38,000  Level Salt Lake Center
03:11PM 45.7003 -114.1347 303° West 404 465 38,000 -60 Level Salt Lake Center
03:12PM 45.7728 -114.2975 303° West 405 466 37,900 -60 Descending Salt Lake Center
03:13PM 45.8347 -114.4336 303° West 407 468 37,900  Level Salt Lake Center
03:14PM 45.8936 -114.5708 302° West 406 467 38,000  Climbing Salt Lake Center
03:15PM 45.9547 -114.7056 303° West 404 465 38,000  Level Salt Lake Center
03:16PM 46.0150 -114.8436 302° West 406 467 38,000  Level Salt Lake Center
03:17PM 46.0756 -114.9803 303° West 405 466 38,000  Level Salt Lake Center
03:18PM 46.1117 -115.0664 301° West 403 464 38,000 -60 Level Seattle Center
03:19PM 46.1722 -115.2042 302° West 407 468 37,900 -60 Descending Seattle Center
03:20PM 46.2436 -115.3694 302° West 406 467 37,900  Level Seattle Center
03:21PM 46.3028 -115.5094 301° West 407 468 38,000  Climbing Seattle Center
03:22PM 46.3622 -115.6467 302° West 405 466 37,900 -60 Descending Seattle Center
03:23PM 46.4203 -115.7847 301° West 404 465 37,900  Level Seattle Center
03:24PM 46.4772 -115.9211 301° West 398 458 38,000  Climbing Seattle Center
03:25PM 46.5364 -116.0589 302° West 401 461 37,900  Descending Seattle Center
03:26PM 46.5942 -116.1961 302° West 400 460 38,000  Climbing Seattle Center
03:27PM 46.6519 -116.3350 301° West 400 460 37,900  Descending Seattle Center
03:28PM 46.7092 -116.4742 301° West 402 463 38,000  Climbing Seattle Center
03:29PM 46.7672 -116.6144 301° West 402 463 37,900  Descending Seattle Center
03:30PM 46.8253 -116.7547 301° West 404 465 38,000  Climbing Seattle Center
03:31PM 46.8825 -116.8944 301° West 403 464 38,000  Level Seattle Center
03:32PM 46.9403 -117.0361 301° West 405 466 38,000  Level Seattle Center
03:33PM 46.9978 -117.1767 301° West 402 463 38,000  Level Seattle Center
03:34PM 47.0544 -117.3183 300° West 402 463 38,000  Level Seattle Center
03:35PM 47.1211 -117.4844 301° West 395 455 38,000  Level Seattle Center
03:36PM 47.1772 -117.6244 301° West 395 455 38,000  Level Seattle Center
03:37PM 47.2328 -117.7647 300° West 396 456 38,000  Level Seattle Center
03:38PM 47.2886 -117.9053 300° West 398 458 38,000  Level Seattle Center
03:39PM 47.3439 -118.0450 300° West 395 455 38,000  Level Seattle Center
03:40PM 47.3981 -118.1864 300° West 395 455 38,000  Level Seattle Center
03:41PM 47.4503 -118.3283 299° West 395 455 38,000  Level Seattle Center
03:42PM 47.5058 -118.4692 300° West 398 458 38,000 -60 Level Seattle Center
03:43PM 47.5597 -118.6119 299° West 399 459 37,900  Descending Seattle Center
03:44PM 47.6144 -118.7536 300° West 398 458 38,000  Climbing Seattle Center
03:45PM 47.6700 -118.8989 300° West 400 460 37,900 -600 Descending Seattle Center
03:46PM 47.7231 -119.0428 299° West 403 464 36,900 -900 Descending Seattle Center
03:47PM 47.7786 -119.1878 300° West 405 466 36,100 -900 Descending Seattle Center
03:48PM 47.8311 -119.3267 299° West 392 451 35,100 -900 Descending Seattle Center
03:49PM 47.8811 -119.4628 299° West 380 437 34,300 -960 Descending Seattle Center
03:50PM 47.9400 -119.6228 299° West 371 427 33,200 -1,020 Descending Seattle Center
03:51PM 47.9881 -119.7561 298° West 367 422 32,300 -900 Descending Seattle Center
03:52PM 48.0367 -119.8878 299° West 365 420 31,400 -900 Descending Seattle Center
03:53PM 48.0844 -120.0211 298° West 364 419 30,500 -900 Descending Seattle Center
03:54PM 48.1308 -120.1536 298° West 362 417 29,600 -900 Descending Seattle Center
03:55PM 48.1567 -120.2994 285° West 363 418 28,700 -900 Descending Seattle Center
03:56PM 48.1836 -120.4461 285° West 365 420 27,800 -900 Descending Seattle Center
03:57PM 48.2092 -120.5933 285° West 366 421 26,900 -1,020 Descending Seattle Center
03:58PM 48.2358 -120.7414 285° West 367 422 25,800 -1,020 Descending Seattle Center
03:59PM 48.2647 -120.8894 286° West 372 428 24,900 -1,080 Descending Seattle Center
04:00PM 48.2958 -121.0708 285° West 375 432 23,700 -1,140 Descending Seattle Center
04:01PM 48.3206 -121.2231 284° West 377 434 22,700 -1,020 Descending Seattle Center
04:02PM 48.3461 -121.3739 284° West 375 432 21,700 -1,020 Descending Seattle Center
04:03PM 48.3714 -121.5275 284° West 378 435 20,700 -1,020 Descending Seattle Center
04:04PM 48.3956 -121.6750 284° West 367 422 19,700 -1,020 Descending Seattle Center
04:05PM 48.4400 -121.7975 299° West 340 391 18,700 -1,200 Descending Seattle Center
04:06PM 48.4939 -121.9083 306° West 332 382 17,300 -1,260 Descending Seattle Center
04:07PM 48.5458 -122.0172 306° West 325 374 16,200 -1,080 Descending Seattle Center
04:08PM 48.5969 -122.1264 305° West 321 369 15,200 -1,200 Descending Seattle Center
04:09PM 48.6333 -122.2667 291° West 320 368 13,900 -1,200 Descending Vancouver Center
04:10PM 48.6667 -122.3833 293° West 330 380 12,900 -960 Descending Vancouver Center
04:11PM 48.7000 -122.5167 291° West 330 380 12,000 -900 Descending Vancouver Center
04:12PM 48.7500 -122.6167 307° West 320 368 11,200 -1,020 Descending Vancouver Center
04:13PM 48.8167 -122.7167 315° West 320 368 10,000 -600 Descending Vancouver Center
04:14PM 48.8667 -122.8167 307° West 330 380 10,000  Level Vancouver Center
04:15PM 48.9333 -122.9167 315° West 340 391 10,000  Level Vancouver Center
04:16PM 48.9833 -123.0167 307° West 310 357 10,000 -60 Level Vancouver Center
04:17PM 49.0333 -123.1167 307° West 290 334 9,900 -840 Descending Vancouver Center
04:18PM 49.0667 -123.2167 297° West 250 288 8,400 -1,740 Descending Vancouver Center
04:19PM 49.0833 -123.2833 291° West 240 276 6,500 -2,040 Descending Vancouver Center
04:20PM 49.1000 -123.3833 284° West 240 276 4,400 -1,800 Descending Vancouver Center
04:21PM 49.1333 -123.4667 301° West 230 265 3,000 -1,200 Descending Vancouver Center
04:22PM 49.1833 -123.4500 12° North 210 242 2,000 -540 Descending Vancouver Center
04:23PM 49.2000 -123.3667 73° East 190 219 2,000 -300 Level Vancouver Center
04:24PM 49.2000 -123.3167 90° East 170 196 1,500 -720 Descending Vancouver Center
04:25PM 49.1833 -123.2333 107° East 130 150 600 -900 Descending Vancouver Center